createdAt,value
2022-08-22T00:00:13.385Z,101215.94
2022-08-22T00:02:47.156Z,101214.19
2022-08-22T00:02:53.053Z,101171.16
2022-08-22T00:02:54.358Z,101200.72
2022-08-22T00:02:59.281Z,101209.59
2022-08-22T00:03:10.012Z,101216.00
2022-08-22T00:03:11.561Z,101187.56
2022-08-22T00:03:26.953Z,101227.31
2022-08-22T00:06:10.993Z,101218.19
2022-08-22T00:08:56.789Z,101226.13
2022-08-22T00:11:36.432Z,101222.78
2022-08-22T00:14:17.739Z,101222.38
2022-08-22T00:17:01.041Z,101213.31
2022-08-22T00:19:47.213Z,101207.75
2022-08-22T00:22:26.262Z,101215.34
2022-08-22T00:25:24.602Z,101212.63
2022-08-22T00:28:02.351Z,101203.06
2022-08-22T00:30:43.734Z,101214.63
2022-08-22T00:33:25.320Z,101206.84
2022-08-22T00:36:10.498Z,101215.50
2022-08-22T00:38:50.540Z,101217.38
2022-08-22T00:41:38.461Z,101210.25
2022-08-22T00:44:46.268Z,101217.06
2022-08-22T00:47:39.474Z,101221.94
2022-08-22T00:50:45.617Z,101221.09
2022-08-22T00:53:43.918Z,101217.31
2022-08-22T00:56:35.479Z,101217.75
2022-08-22T00:59:24.274Z,101227.38
2022-08-22T01:02:06.699Z,101223.00
2022-08-22T01:04:56.758Z,101226.31
2022-08-22T01:07:52.672Z,101221.97
2022-08-22T01:10:44.079Z,101226.94
2022-08-22T01:13:36.909Z,101229.56
2022-08-22T01:16:23.259Z,101233.59
2022-08-22T01:19:08.540Z,101237.78
2022-08-22T01:22:16.133Z,101235.91
2022-08-22T01:25:22.407Z,101243.03
2022-08-22T01:28:27.835Z,101239.19
2022-08-22T01:31:44.582Z,101242.78
2022-08-22T01:34:47.545Z,101247.63
2022-08-22T01:37:46.082Z,101254.88
2022-08-22T01:40:53.341Z,101254.03
2022-08-22T01:43:59.569Z,101253.66
2022-08-22T01:46:45.327Z,101258.69
2022-08-22T01:49:23.992Z,101254.59
2022-08-22T01:52:03.115Z,101256.84
2022-08-22T01:54:47.325Z,101255.47
2022-08-22T01:57:20.624Z,101255.28
2022-08-22T01:59:57.970Z,101250.63
2022-08-22T02:02:54.448Z,101254.34
2022-08-22T02:05:32.162Z,101251.19
2022-08-22T02:08:17.656Z,101250.13
2022-08-22T02:11:03.166Z,101244.72
2022-08-22T02:13:55.959Z,101245.47
2022-08-22T02:16:38.500Z,101244.69
2022-08-22T02:19:25.403Z,101237.59
2022-08-22T02:22:03.274Z,101243.22
2022-08-22T02:24:52.047Z,101252.25
2022-08-22T02:27:36.339Z,101247.13
2022-08-22T02:30:12.242Z,101248.16
2022-08-22T02:32:57.773Z,101254.13
2022-08-22T02:35:36.946Z,101251.41
2022-08-22T02:38:26.473Z,101257.69
2022-08-22T02:41:13.763Z,101254.88
2022-08-22T02:43:52.419Z,101252.28
2022-08-22T02:46:32.801Z,101252.47
2022-08-22T02:49:13.048Z,101246.69
2022-08-22T02:51:55.430Z,101241.06
2022-08-22T02:54:33.950Z,101248.72
2022-08-22T02:57:14.159Z,101246.56
2022-08-22T03:00:30.720Z,101240.88
2022-08-22T03:03:08.457Z,101251.03
2022-08-22T03:05:59.040Z,101247.69
2022-08-22T03:08:35.575Z,101248.31
2022-08-22T03:11:19.292Z,101244.53
2022-08-22T03:14:04.197Z,101250.94
2022-08-22T03:16:41.575Z,101242.38
2022-08-22T03:19:19.708Z,101242.63
2022-08-22T03:21:59.961Z,101240.00
2022-08-22T03:24:44.231Z,101239.19
2022-08-22T03:27:32.908Z,101233.19
2022-08-22T03:30:16.760Z,101228.59
2022-08-22T03:32:56.908Z,101236.66
2022-08-22T03:35:40.315Z,101235.06
2022-08-22T03:38:24.085Z,101237.88
2022-08-22T03:41:25.822Z,101244.03
2022-08-22T03:44:36.729Z,101237.13
2022-08-22T03:47:41.279Z,101234.59
2022-08-22T03:50:50.984Z,101229.75
2022-08-22T03:54:03.720Z,101237.00
2022-08-22T03:57:01.380Z,101238.63
2022-08-22T04:00:10.910Z,101245.78
2022-08-22T04:03:19.480Z,101246.31
2022-08-22T04:06:23.389Z,101244.00
2022-08-22T04:09:24.341Z,101253.97
2022-08-22T04:12:31.543Z,101254.50
2022-08-22T04:15:33.894Z,101253.47
2022-08-22T04:18:27.850Z,101254.84
2022-08-22T04:21:30.123Z,101256.31
2022-08-22T04:24:34.115Z,101261.72
2022-08-22T04:27:15.670Z,101262.94
2022-08-22T04:29:53.386Z,101266.00
2022-08-22T04:32:34.638Z,101263.28
2022-08-22T04:35:39.385Z,101270.41
2022-08-22T04:38:19.053Z,101265.06
2022-08-22T04:41:02.558Z,101261.97
2022-08-22T04:43:43.430Z,101273.84
2022-08-22T04:46:23.284Z,101271.00
2022-08-22T04:49:03.248Z,101272.13
2022-08-22T04:51:44.508Z,101274.97
2022-08-22T04:54:40.462Z,101283.56
2022-08-22T04:57:23.423Z,101285.34
2022-08-22T05:00:03.766Z,101286.44
2022-08-22T05:02:39.660Z,101287.53
2022-08-22T05:05:19.659Z,101289.22
2022-08-22T05:07:58.942Z,101294.28
2022-08-22T05:10:41.116Z,101305.66
2022-08-22T05:13:18.515Z,101310.38
2022-08-22T05:15:53.192Z,101305.94
2022-08-22T05:18:31.737Z,101297.06
2022-08-22T05:21:08.247Z,101303.75
2022-08-22T05:23:51.673Z,101309.91
2022-08-22T05:26:24.884Z,101313.53
2022-08-22T05:29:01.298Z,101302.16
2022-08-22T05:31:35.928Z,101307.63
2022-08-22T05:34:11.809Z,101315.00
2022-08-22T05:36:49.193Z,101309.69
2022-08-22T05:39:29.940Z,101314.59
2022-08-22T05:42:06.363Z,101317.81
2022-08-22T05:44:40.655Z,101316.19
2022-08-22T05:47:31.393Z,101309.44
2022-08-22T05:50:08.075Z,101314.28
2022-08-22T05:52:58.141Z,101325.91
2022-08-22T05:55:43.060Z,101320.47
2022-08-22T05:58:45.024Z,101321.72
2022-08-22T06:01:28.141Z,101311.47
2022-08-22T06:04:07.761Z,101327.66
2022-08-22T06:06:46.217Z,101325.81
2022-08-22T06:09:23.114Z,101322.31
2022-08-22T06:12:04.378Z,101330.31
2022-08-22T06:14:46.741Z,101325.88
2022-08-22T06:17:23.019Z,101334.03
2022-08-22T06:19:57.991Z,101330.47
2022-08-22T06:22:34.004Z,101336.91
2022-08-22T06:25:13.305Z,101342.00
2022-08-22T06:27:50.766Z,101336.44
2022-08-22T06:30:26.322Z,101333.09
2022-08-22T06:33:02.986Z,101335.00
2022-08-22T06:35:54.109Z,101339.19
2022-08-22T06:38:36.149Z,101337.06
2022-08-22T06:41:15.177Z,101347.31
2022-08-22T06:43:50.371Z,101346.28
2022-08-22T06:46:25.788Z,101351.44
2022-08-22T06:49:01.457Z,101349.63
2022-08-22T06:51:38.270Z,101349.41
2022-08-22T06:54:19.548Z,101343.97
2022-08-22T06:56:56.749Z,101350.03
2022-08-22T06:59:39.968Z,101355.84
2022-08-22T07:02:27.432Z,101352.53
2022-08-22T07:05:00.062Z,101351.00
2022-08-22T07:07:32.347Z,101348.03
2022-08-22T07:10:04.260Z,101353.28
2022-08-22T07:12:41.379Z,101359.47
2022-08-22T07:15:24.609Z,101364.13
2022-08-22T07:18:02.434Z,101353.03
2022-08-22T07:20:39.936Z,101357.72
2022-08-22T07:23:15.574Z,101363.41
2022-08-22T07:25:56.286Z,101366.28
2022-08-22T07:28:50.813Z,101366.91
2022-08-22T07:31:38.447Z,101369.66
2022-08-22T07:34:38.912Z,101364.25
2022-08-22T07:37:16.294Z,101363.22
2022-08-22T07:39:58.659Z,101371.91
2022-08-22T07:42:40.453Z,101369.78
2022-08-22T07:45:20.970Z,101363.06
2022-08-22T07:48:06.671Z,101363.03
2022-08-22T07:50:46.019Z,101365.94
2022-08-22T07:53:25.623Z,101370.47
2022-08-22T07:56:00.693Z,101367.69
2022-08-22T07:58:35.422Z,101375.88
2022-08-22T08:01:09.812Z,101372.53
2022-08-22T08:03:46.516Z,101366.00
2022-08-22T08:06:18.659Z,101370.16
2022-08-22T08:08:50.458Z,101367.28
2022-08-22T08:11:26.708Z,101366.84
2022-08-22T08:14:05.715Z,101360.88
2022-08-22T08:16:53.818Z,101367.03
2022-08-22T08:19:27.849Z,101365.63
2022-08-22T08:22:04.899Z,101364.13
2022-08-22T08:24:44.225Z,101366.06
2022-08-22T08:27:37.727Z,101369.31
2022-08-22T08:30:15.691Z,101366.38
2022-08-22T08:33:12.095Z,101362.41
2022-08-22T08:36:02.305Z,101360.56
2022-08-22T08:38:43.504Z,101361.13
2022-08-22T08:41:43.259Z,101365.66
2022-08-22T08:44:37.780Z,101362.22
2022-08-22T08:47:28.262Z,101354.56
2022-08-22T08:50:16.743Z,101355.63
2022-08-22T08:53:28.181Z,101358.97
2022-08-22T08:56:07.760Z,101354.75
2022-08-22T08:58:52.419Z,101352.84
2022-08-22T09:01:41.734Z,101348.13
2022-08-22T09:04:42.343Z,101346.44
2022-08-22T09:07:58.371Z,101349.78
2022-08-22T09:10:55.987Z,101354.38
2022-08-22T09:13:55.260Z,101357.81
2022-08-22T09:16:49.057Z,101352.38
2022-08-22T09:19:52.662Z,101353.00
2022-08-22T09:22:54.480Z,101359.19
2022-08-22T09:25:38.521Z,101355.38
2022-08-22T09:28:21.894Z,101357.53
2022-08-22T09:31:16.942Z,101357.84
2022-08-22T09:34:13.585Z,101360.47
2022-08-22T09:37:14.146Z,101361.47
2022-08-22T09:40:01.596Z,101360.66
2022-08-22T09:42:46.409Z,101363.69
2022-08-22T09:45:42.989Z,101363.19
2022-08-22T09:48:41.053Z,101356.72
2022-08-22T09:51:33.161Z,101361.59
2022-08-22T09:54:20.958Z,101365.09
2022-08-22T09:57:03.785Z,101362.66
2022-08-22T09:59:59.083Z,101360.72
2022-08-22T10:02:43.494Z,101364.88
2022-08-22T10:05:35.214Z,101367.75
2022-08-22T10:08:35.552Z,101358.50
2022-08-22T10:11:19.783Z,101362.91
2022-08-22T10:14:01.942Z,101362.94
2022-08-22T10:17:13.727Z,101366.09
2022-08-22T10:20:01.972Z,101371.91
2022-08-22T10:22:46.539Z,101367.25
2022-08-22T10:25:35.182Z,101373.03
2022-08-22T10:28:18.317Z,101362.78
2022-08-22T10:31:05.018Z,101367.25
2022-08-22T10:33:44.401Z,101362.63
2022-08-22T10:36:27.275Z,101361.75
2022-08-22T10:39:11.021Z,101370.88
2022-08-22T10:42:01.977Z,101356.06
2022-08-22T10:44:48.089Z,101361.09
2022-08-22T10:47:25.665Z,101350.06
2022-08-22T10:50:02.917Z,101359.75
2022-08-22T10:52:50.231Z,101363.88
2022-08-22T10:55:28.800Z,101355.03
2022-08-22T10:58:09.341Z,101351.78
2022-08-22T11:00:51.912Z,101360.38
2022-08-22T11:03:31.604Z,101357.63
2022-08-22T11:06:06.642Z,101364.59
2022-08-22T11:09:09.390Z,101358.13
2022-08-22T11:11:46.198Z,101349.97
2022-08-22T11:14:49.273Z,101348.22
2022-08-22T11:17:41.672Z,101353.44
2022-08-22T11:20:23.004Z,101353.53
2022-08-22T11:23:17.268Z,101348.16
2022-08-22T11:26:06.572Z,101351.09
2022-08-22T11:29:13.839Z,101357.13
2022-08-22T11:31:56.316Z,101345.53
2022-08-22T11:34:49.558Z,101343.75
2022-08-22T11:37:56.268Z,101344.50
2022-08-22T11:40:41.817Z,101343.41
2022-08-22T11:43:48.793Z,101346.41
2022-08-22T11:46:32.841Z,101337.91
2022-08-22T11:49:34.084Z,101348.69
2022-08-22T11:52:21.583Z,101346.81
2022-08-22T11:55:19.914Z,101344.81
2022-08-22T11:57:59.560Z,101343.75
2022-08-22T12:00:52.968Z,101342.22
2022-08-22T12:03:42.935Z,101338.38
2022-08-22T12:06:42.467Z,101336.97
2022-08-22T12:09:38.110Z,101333.47
2022-08-22T12:12:24.825Z,101338.84
2022-08-22T12:15:05.452Z,101337.78
2022-08-22T12:18:09.709Z,101339.91
2022-08-22T12:21:06.662Z,101332.84
2022-08-22T12:24:11.191Z,101330.47
2022-08-22T12:27:28.823Z,101327.50
2022-08-22T12:30:15.707Z,101325.25
2022-08-22T12:33:23.206Z,101323.16
2022-08-22T12:36:18.023Z,101314.38
2022-08-22T12:39:07.756Z,101317.13
2022-08-22T12:42:00.290Z,101310.63
2022-08-22T12:44:52.298Z,101313.56
2022-08-22T12:47:42.363Z,101311.41
2022-08-22T12:50:32.912Z,101310.19
2022-08-22T12:53:28.343Z,101309.16
2022-08-22T12:56:14.333Z,101310.38
2022-08-22T12:59:09.229Z,101299.78
2022-08-22T13:01:47.495Z,101294.19
2022-08-22T13:04:33.072Z,101292.94
2022-08-22T13:07:24.921Z,101300.44
2022-08-22T13:10:06.246Z,101295.84
2022-08-22T13:12:46.568Z,101289.78
2022-08-22T13:15:33.040Z,101291.56
2022-08-22T13:18:29.421Z,101294.22
2022-08-22T13:21:11.465Z,101278.69
2022-08-22T13:23:55.036Z,101288.28
2022-08-22T13:26:33.960Z,101289.94
2022-08-22T13:29:26.202Z,101297.28
2022-08-22T13:32:04.661Z,101293.50
2022-08-22T13:34:43.564Z,101295.41
2022-08-22T13:37:25.700Z,101293.09
2022-08-22T13:40:07.488Z,101295.19
2022-08-22T13:42:48.452Z,101297.28
2022-08-22T13:45:27.054Z,101289.38
2022-08-22T13:48:11.580Z,101298.16
2022-08-22T13:51:04.658Z,101294.56
2022-08-22T13:53:49.953Z,101294.81
2022-08-22T13:56:47.305Z,101280.78
2022-08-22T13:59:50.161Z,101290.06
2022-08-22T14:02:43.385Z,101292.56
2022-08-22T14:05:22.719Z,101291.81
2022-08-22T14:08:13.042Z,101291.91
2022-08-22T14:10:55.219Z,101298.06
2022-08-22T14:13:46.123Z,101288.97
2022-08-22T14:16:28.814Z,101291.13
2022-08-22T14:19:06.157Z,101282.91
2022-08-22T14:21:46.238Z,101295.13
2022-08-22T14:24:28.780Z,101280.72
2022-08-22T14:27:06.605Z,101279.56
2022-08-22T14:29:50.129Z,101279.13
2022-08-22T14:32:43.498Z,101280.28
2022-08-22T14:35:34.724Z,101270.63
2022-08-22T14:38:27.210Z,101276.47
2022-08-22T14:41:05.907Z,101280.69
2022-08-22T14:43:53.855Z,101285.28
2022-08-22T14:46:38.533Z,101284.03
2022-08-22T14:49:29.999Z,101282.72
2022-08-22T14:52:19.599Z,101278.63
2022-08-22T14:54:51.787Z,101277.00
2022-08-22T14:57:27.237Z,101282.75
2022-08-22T14:59:59.090Z,101277.47
2022-08-22T15:02:36.353Z,101274.94
2022-08-22T15:05:19.911Z,101274.97
2022-08-22T15:07:59.769Z,101274.91
2022-08-22T15:10:42.190Z,101267.78
2022-08-22T15:13:14.972Z,101274.78
2022-08-22T15:15:54.984Z,101267.13
2022-08-22T15:18:41.424Z,101273.97
2022-08-22T15:21:29.137Z,101276.88
2022-08-22T15:24:08.375Z,101279.97
2022-08-22T15:26:47.608Z,101278.47
2022-08-22T15:29:26.587Z,101276.78
2022-08-22T15:32:01.964Z,101282.03
2022-08-22T15:34:42.265Z,101280.78
2022-08-22T15:37:34.874Z,101268.13
2022-08-22T15:40:14.616Z,101273.22
2022-08-22T15:42:50.070Z,101273.72
2022-08-22T15:45:33.740Z,101274.44
2022-08-22T15:48:13.894Z,101267.72
2022-08-22T15:51:04.944Z,101272.19
2022-08-22T15:54:16.338Z,101267.88
2022-08-22T15:57:29.806Z,101269.38
2022-08-22T16:00:04.361Z,101275.47
2022-08-22T16:03:01.993Z,101272.69
2022-08-22T16:05:55.003Z,101278.59
2022-08-22T16:08:33.269Z,101269.41
2022-08-22T16:11:33.269Z,101280.44
2022-08-22T16:14:23.527Z,101272.28
2022-08-22T16:17:01.094Z,101267.69
2022-08-22T16:19:35.765Z,101274.91
2022-08-22T16:22:17.466Z,101285.97
2022-08-22T16:25:03.228Z,101272.72
2022-08-22T16:27:35.340Z,101278.75
2022-08-22T16:30:17.707Z,101281.50
2022-08-22T16:32:59.697Z,101282.34
2022-08-22T16:36:29.307Z,101284.91
2022-08-22T16:39:04.248Z,101284.28
2022-08-22T16:41:41.947Z,101276.44
2022-08-22T16:44:23.766Z,101278.81
2022-08-22T16:46:58.267Z,101276.91
2022-08-22T16:49:34.408Z,101273.91
2022-08-22T16:52:36.507Z,101283.72
2022-08-22T16:55:58.588Z,101291.50
2022-08-22T16:59:01.070Z,101283.50
2022-08-22T17:01:53.595Z,101290.63
2022-08-22T17:04:35.467Z,101286.22
2022-08-22T17:07:21.387Z,101287.69
2022-08-22T17:10:19.029Z,101298.16
2022-08-22T17:13:16.207Z,101289.69
2022-08-22T17:16:02.909Z,101288.72
2022-08-22T17:18:57.049Z,101281.44
2022-08-22T17:21:34.647Z,101283.88
2022-08-22T17:24:32.226Z,101295.91
2022-08-22T17:27:20.029Z,101291.91
2022-08-22T17:30:09.650Z,101289.50
2022-08-22T17:33:00.097Z,101295.09
2022-08-22T17:35:47.266Z,101293.00
2022-08-22T17:38:35.670Z,101289.09
2022-08-22T17:41:22.042Z,101298.59
2022-08-22T17:44:02.982Z,101296.22
2022-08-22T17:46:47.097Z,101310.38
2022-08-22T17:49:28.852Z,101313.25
2022-08-22T17:52:14.931Z,101322.31
2022-08-22T17:54:55.451Z,101322.78
2022-08-22T17:57:36.674Z,101323.91
2022-08-22T18:00:18.991Z,101328.47
2022-08-22T18:02:56.732Z,101333.19
2022-08-22T18:05:35.209Z,101326.97
2022-08-22T18:08:37.356Z,101337.69
2022-08-22T18:11:15.881Z,101333.41
2022-08-22T18:13:59.739Z,101338.94
2022-08-22T18:16:47.492Z,101349.00
2022-08-22T18:19:40.177Z,101346.41
2022-08-22T18:22:16.550Z,101352.63
2022-08-22T18:24:56.363Z,101352.00
2022-08-22T18:27:34.528Z,101352.44
2022-08-22T18:30:19.862Z,101347.06
2022-08-22T18:33:00.352Z,101349.09
2022-08-22T18:35:44.769Z,101352.13
2022-08-22T18:38:30.575Z,101355.25
2022-08-22T18:41:13.859Z,101357.47
2022-08-22T18:43:49.019Z,101350.72
2022-08-22T18:46:42.871Z,101352.75
2022-08-22T18:49:32.124Z,101355.28
2022-08-22T18:52:35.210Z,101356.84
2022-08-22T18:55:39.585Z,101358.75
2022-08-22T18:58:38.225Z,101353.88
2022-08-22T19:01:32.422Z,101351.22
2022-08-22T19:04:59.007Z,101356.50
2022-08-22T19:07:55.619Z,101353.59
2022-08-22T19:10:39.769Z,101350.47
2022-08-22T19:13:46.916Z,101348.72
2022-08-22T19:16:49.315Z,101360.47
2022-08-22T19:19:53.058Z,101365.78
2022-08-22T19:22:30.256Z,101370.59
2022-08-22T19:25:14.776Z,101365.66
2022-08-22T19:27:50.205Z,101379.53
2022-08-22T19:30:45.930Z,101366.75
2022-08-22T19:33:27.656Z,101374.22
2022-08-22T19:36:14.204Z,101375.78
2022-08-22T19:39:05.308Z,101375.69
2022-08-22T19:41:48.823Z,101374.81
2022-08-22T19:44:43.965Z,101373.31
2022-08-22T19:47:30.522Z,101382.63
2022-08-22T19:50:13.625Z,101379.56
2022-08-22T19:53:12.911Z,101375.91
2022-08-22T19:56:03.883Z,101384.28
2022-08-22T19:58:56.545Z,101390.63
2022-08-22T20:01:47.466Z,101381.31
2022-08-22T20:04:53.246Z,101374.72
2022-08-22T20:07:33.785Z,101378.28
2022-08-22T20:10:19.766Z,101373.72
2022-08-22T20:13:07.616Z,101378.78
2022-08-22T20:16:10.685Z,101384.06
2022-08-22T20:19:05.956Z,101379.69
2022-08-22T20:22:01.010Z,101380.66
2022-08-22T20:24:40.183Z,101377.91
2022-08-22T20:27:21.006Z,101390.25
2022-08-22T20:29:58.945Z,101386.22
2022-08-22T20:32:47.264Z,101388.53
2022-08-22T20:35:22.604Z,101385.91
2022-08-22T20:38:07.071Z,101374.00
2022-08-22T20:40:55.039Z,101376.53
2022-08-22T20:43:35.667Z,101381.84
2022-08-22T20:46:24.269Z,101386.94
2022-08-22T20:49:02.961Z,101383.78
2022-08-22T20:51:37.219Z,101378.31
2022-08-22T20:54:20.558Z,101384.63
2022-08-22T20:56:55.636Z,101385.69
2022-08-22T20:59:32.865Z,101385.56
2022-08-22T21:02:11.626Z,101401.28
2022-08-22T21:04:54.671Z,101395.41
2022-08-22T21:07:29.965Z,101390.81
2022-08-22T21:10:22.863Z,101392.50
2022-08-22T21:13:14.934Z,101391.38
2022-08-22T21:15:49.193Z,101390.56
2022-08-22T21:18:30.467Z,101386.34
2022-08-22T21:21:17.317Z,101384.72
2022-08-22T21:23:51.485Z,101384.09
2022-08-22T21:26:27.488Z,101381.47
2022-08-22T21:29:02.262Z,101383.53
2022-08-22T21:31:38.572Z,101383.53
2022-08-22T21:34:17.018Z,101390.03
2022-08-22T21:36:53.864Z,101385.19
2022-08-22T21:39:30.260Z,101400.75
2022-08-22T21:42:14.772Z,101401.38
2022-08-22T21:44:57.373Z,101409.78
2022-08-22T21:47:34.408Z,101402.66
2022-08-22T21:50:18.886Z,101403.06
2022-08-22T21:53:10.121Z,101406.56
2022-08-22T21:55:47.246Z,101410.59
2022-08-22T21:58:35.691Z,101399.09
2022-08-22T22:01:30.647Z,101406.03
2022-08-22T22:04:03.433Z,101396.16
2022-08-22T22:06:35.369Z,101396.59
2022-08-22T22:09:13.228Z,101398.91
2022-08-22T22:11:46.711Z,101398.47
2022-08-22T22:14:18.684Z,101404.13
2022-08-22T22:16:50.466Z,101396.13
2022-08-22T22:19:23.249Z,101405.75
2022-08-22T22:21:56.861Z,101398.81
2022-08-22T22:24:31.211Z,101396.69
2022-08-22T22:27:03.034Z,101406.41
2022-08-22T22:29:36.147Z,101407.88
2022-08-22T22:32:08.133Z,101404.13
2022-08-22T22:34:40.250Z,101396.97
2022-08-22T22:37:15.116Z,101399.06
2022-08-22T22:39:50.007Z,101396.78
2022-08-22T22:42:21.976Z,101397.22
2022-08-22T22:44:54.307Z,101397.00
2022-08-22T22:47:29.989Z,101394.69
2022-08-22T22:50:05.365Z,101393.44
2022-08-22T22:52:59.883Z,101392.81
2022-08-22T22:55:34.679Z,101394.50
2022-08-22T22:58:07.227Z,101381.91
2022-08-22T23:00:42.525Z,101386.31
2022-08-22T23:03:14.386Z,101385.44
2022-08-22T23:05:46.726Z,101382.13
2022-08-22T23:08:18.536Z,101382.34
2022-08-22T23:10:53.455Z,101391.97
2022-08-22T23:13:25.205Z,101387.34
2022-08-22T23:15:57.486Z,101386.09
2022-08-22T23:18:39.290Z,101385.25
2022-08-22T23:21:15.796Z,101387.56
2022-08-22T23:23:48.025Z,101386.72
2022-08-22T23:26:23.017Z,101390.06
2022-08-22T23:28:55.078Z,101394.72
2022-08-22T23:31:32.795Z,101393.44
2022-08-22T23:34:07.127Z,101382.50
2022-08-22T23:36:40.235Z,101383.13
2022-08-22T23:39:13.231Z,101393.66
2022-08-22T23:41:49.495Z,101380.22
2022-08-22T23:44:23.631Z,101381.47
2022-08-22T23:46:59.141Z,101383.94
2022-08-22T23:49:31.497Z,101374.94
2022-08-22T23:52:03.804Z,101381.25
2022-08-22T23:54:36.525Z,101383.13
2022-08-22T23:57:12.701Z,101376.41
2022-08-22T23:59:46.418Z,101380.38
